Terminal Aerodrome Forecast
Issued by NWS Lake Charles, LA

Home | Current Version | Previous Version | Text Only | Print | Product List | Glossary On
Versions: 1 2 3 4 5 6 7 8 9 10 11 12 13 14 15 16 17
000
FTUS44 KLCH 291400 AAA
TAFAEX
TAF AMD
KAEX 291409Z 2914/3012 VRB03KT 5SM BR OVC005
      TEMPO 2914/2918 6SM BR OVC008
     FM291800 VRB03KT P6SM OVC012
     FM300300 VRB03KT P6SM OVC008=

USA.gov is the U.S. government's official web portal to all federal, state and local government web resources and services.